sensor_id;sensor_type;location;lat;lon;timestamp;pressure;altitude;pressure_sealevel;temperature;humidity
34482;BME280;20720;48.886;9.388;2023-01-19T00:01:35;97337.19;;;-0.31;100.00
34482;BME280;20720;48.886;9.388;2023-01-19T00:04:01;97334.03;;;-0.17;100.00
34482;BME280;20720;48.886;9.388;2023-01-19T00:06:26;97347.22;;;-0.20;100.00
34482;BME280;20720;48.886;9.388;2023-01-19T00:08:51;97352.88;;;-0.25;100.00
34482;BME280;20720;48.886;9.388;2023-01-19T00:11:17;97343.06;;;-0.21;100.00
34482;BME280;20720;48.886;9.388;2023-01-19T00:13:43;97341.44;;;-0.14;100.00
34482;BME280;20720;48.886;9.388;2023-01-19T00:16:17;97342.78;;;0.06;100.00
34482;BME280;20720;48.886;9.388;2023-01-19T00:18:43;97345.06;;;0.17;100.00
34482;BME280;20720;48.886;9.388;2023-01-19T00:21:09;97345.81;;;-0.07;100.00
34482;BME280;20720;48.886;9.388;2023-01-19T00:23:35;97343.19;;;0.43;100.00
34482;BME280;20720;48.886;9.388;2023-01-19T00:26:00;97345.09;;;0.33;100.00
34482;BME280;20720;48.886;9.388;2023-01-19T00:28:25;97351.84;;;0.18;100.00
34482;BME280;20720;48.886;9.388;2023-01-19T00:30:50;97351.53;;;0.13;100.00
34482;BME280;20720;48.886;9.388;2023-01-19T00:33:16;97354.38;;;-0.06;100.00
34482;BME280;20720;48.886;9.388;2023-01-19T00:35:41;97352.13;;;-0.01;100.00
34482;BME280;20720;48.886;9.388;2023-01-19T00:38:07;97348.25;;;-0.05;100.00
34482;BME280;20720;48.886;9.388;2023-01-19T00:40:33;97359.09;;;-0.35;100.00
34482;BME280;20720;48.886;9.388;2023-01-19T00:42:58;97352.72;;;-0.23;100.00
34482;BME280;20720;48.886;9.388;2023-01-19T00:45:24;97361.78;;;-0.11;100.00
34482;BME280;20720;48.886;9.388;2023-01-19T00:47:50;97360.41;;;-0.31;100.00
34482;BME280;20720;48.886;9.388;2023-01-19T00:50:25;97357.69;;;-0.30;100.00
34482;BME280;20720;48.886;9.388;2023-01-19T00:52:52;97367.28;;;-0.06;100.00
34482;BME280;20720;48.886;9.388;2023-01-19T00:55:18;97363.19;;;-0.17;100.00
34482;BME280;20720;48.886;9.388;2023-01-19T00:57:43;97353.41;;;-0.05;100.00
34482;BME280;20720;48.886;9.388;2023-01-19T01:00:11;97363.84;;;-0.15;100.00
34482;BME280;20720;48.886;9.388;2023-01-19T01:02:38;97359.28;;;0.21;100.00
34482;BME280;20720;48.886;9.388;2023-01-19T01:05:05;97364.44;;;0.13;100.00
34482;BME280;20720;48.886;9.388;2023-01-19T01:07:31;97361.06;;;0.21;100.00
34482;BME280;20720;48.886;9.388;2023-01-19T01:10:08;97363.16;;;0.25;100.00
34482;BME280;20720;48.886;9.388;2023-01-19T01:12:34;97358.13;;;0.16;100.00
34482;BME280;20720;48.886;9.388;2023-01-19T01:14:59;97357.66;;;0.20;100.00
34482;BME280;20720;48.886;9.388;2023-01-19T01:17:24;97369.63;;;0.29;100.00
34482;BME280;20720;48.886;9.388;2023-01-19T01:19:50;97367.22;;;0.28;100.00
34482;BME280;20720;48.886;9.388;2023-01-19T01:22:16;97371.31;;;-0.12;100.00
34482;BME280;20720;48.886;9.388;2023-01-19T01:24:42;97367.84;;;-0.28;100.00
34482;BME280;20720;48.886;9.388;2023-01-19T01:27:07;97366.03;;;0.14;100.00
34482;BME280;20720;48.886;9.388;2023-01-19T01:29:32;97371.56;;;0.35;100.00
34482;BME280;20720;48.886;9.388;2023-01-19T01:32:00;97363.00;;;0.35;100.00
34482;BME280;20720;48.886;9.388;2023-01-19T01:34:25;97368.03;;;0.28;100.00
34482;BME280;20720;48.886;9.388;2023-01-19T01:36:50;97369.63;;;0.29;100.00
34482;BME280;20720;48.886;9.388;2023-01-19T01:39:15;97366.53;;;0.18;100.00
34482;BME280;20720;48.886;9.388;2023-01-19T01:41:41;97370.22;;;0.07;100.00
34482;BME280;20720;48.886;9.388;2023-01-19T01:47:16;97361.50;;;0.00;100.00
34482;BME280;20720;48.886;9.388;2023-01-19T01:49:42;97369.59;;;0.13;100.00
34482;BME280;20720;48.886;9.388;2023-01-19T01:52:10;97367.16;;;0.04;100.00
34482;BME280;20720;48.886;9.388;2023-01-19T01:54:36;97362.34;;;0.25;100.00
34482;BME280;20720;48.886;9.388;2023-01-19T01:57:04;97376.56;;;0.21;100.00
34482;BME280;20720;48.886;9.388;2023-01-19T01:59:39;97368.69;;;0.30;100.00
34482;BME280;20720;48.886;9.388;2023-01-19T02:02:09;97369.00;;;0.35;100.00
34482;BME280;20720;48.886;9.388;2023-01-19T02:05:04;97368.03;;;0.44;100.00
34482;BME280;20720;48.886;9.388;2023-01-19T02:08:14;97369.66;;;0.45;100.00
34482;BME280;20720;48.886;9.388;2023-01-19T02:11:01;97375.41;;;0.23;100.00
34482;BME280;20720;48.886;9.388;2023-01-19T02:13:45;97381.13;;;0.43;100.00
34482;BME280;20720;48.886;9.388;2023-01-19T02:16:12;97378.38;;;0.44;100.00
34482;BME280;20720;48.886;9.388;2023-01-19T02:18:38;97371.59;;;0.51;100.00
34482;BME280;20720;48.886;9.388;2023-01-19T02:23:42;97374.81;;;0.37;100.00
34482;BME280;20720;48.886;9.388;2023-01-19T02:26:09;97369.34;;;0.72;100.00
34482;BME280;20720;48.886;9.388;2023-01-19T02:28:42;97373.84;;;0.38;100.00
34482;BME280;20720;48.886;9.388;2023-01-19T02:31:09;97381.47;;;-0.10;100.00
34482;BME280;20720;48.886;9.388;2023-01-19T02:33:34;97376.69;;;0.11;100.00
34482;BME280;20720;48.886;9.388;2023-01-19T02:36:01;97381.72;;;0.21;100.00
34482;BME280;20720;48.886;9.388;2023-01-19T02:38:27;97375.44;;;-0.27;100.00
34482;BME280;20720;48.886;9.388;2023-01-19T02:40:57;97374.44;;;0.16;100.00
34482;BME280;20720;48.886;9.388;2023-01-19T02:43:25;97373.28;;;0.03;100.00
34482;BME280;20720;48.886;9.388;2023-01-19T02:45:51;97377.91;;;-0.17;100.00
34482;BME280;20720;48.886;9.388;2023-01-19T02:48:17;97382.78;;;-0.06;100.00
34482;BME280;20720;48.886;9.388;2023-01-19T02:50:45;97381.72;;;-0.29;100.00
34482;BME280;20720;48.886;9.388;2023-01-19T02:53:41;97385.66;;;-0.09;100.00
34482;BME280;20720;48.886;9.388;2023-01-19T03:04:56;97391.00;;;-0.44;100.00
34482;BME280;20720;48.886;9.388;2023-01-19T03:07:36;97384.91;;;-0.35;100.00
34482;BME280;20720;48.886;9.388;2023-01-19T03:10:07;97391.72;;;-0.60;100.00
34482;BME280;20720;48.886;9.388;2023-01-19T03:12:51;97388.13;;;-0.67;100.00
34482;BME280;20720;48.886;9.388;2023-01-19T03:15:26;97391.25;;;-0.55;100.00
34482;BME280;20720;48.886;9.388;2023-01-19T03:17:53;97382.22;;;-0.59;100.00
34482;BME280;20720;48.886;9.388;2023-01-19T03:20:22;97392.81;;;-0.62;100.00
34482;BME280;20720;48.886;9.388;2023-01-19T03:22:52;97393.56;;;-0.70;100.00
34482;BME280;20720;48.886;9.388;2023-01-19T03:25:19;97385.34;;;-0.73;100.00
34482;BME280;20720;48.886;9.388;2023-01-19T03:27:46;97393.13;;;-0.91;100.00
34482;BME280;20720;48.886;9.388;2023-01-19T03:30:21;97390.25;;;-0.88;100.00
34482;BME280;20720;48.886;9.388;2023-01-19T03:32:49;97390.75;;;-0.84;100.00
34482;BME280;20720;48.886;9.388;2023-01-19T03:35:17;97405.38;;;-0.93;100.00
34482;BME280;20720;48.886;9.388;2023-01-19T03:37:45;97409.13;;;-1.05;100.00
34482;BME280;20720;48.886;9.388;2023-01-19T03:40:12;97403.31;;;-1.07;100.00
34482;BME280;20720;48.886;9.388;2023-01-19T03:42:38;97407.22;;;-1.21;100.00
34482;BME280;20720;48.886;9.388;2023-01-19T03:45:05;97404.22;;;-1.16;100.00
34482;BME280;20720;48.886;9.388;2023-01-19T03:47:31;97400.16;;;-1.19;100.00
34482;BME280;20720;48.886;9.388;2023-01-19T03:50:01;97406.44;;;-1.21;100.00
34482;BME280;20720;48.886;9.388;2023-01-19T03:52:29;97404.31;;;-1.00;100.00
34482;BME280;20720;48.886;9.388;2023-01-19T03:54:56;97406.41;;;-1.04;100.00
34482;BME280;20720;48.886;9.388;2023-01-19T03:57:22;97412.59;;;-1.14;100.00
34482;BME280;20720;48.886;9.388;2023-01-19T03:59:47;97412.94;;;-0.91;100.00
34482;BME280;20720;48.886;9.388;2023-01-19T04:02:13;97404.41;;;-1.10;100.00
34482;BME280;20720;48.886;9.388;2023-01-19T04:04:39;97409.22;;;-1.15;100.00
34482;BME280;20720;48.886;9.388;2023-01-19T04:07:04;97411.72;;;-1.23;100.00
34482;BME280;20720;48.886;9.388;2023-01-19T04:09:29;97412.81;;;-1.08;100.00
34482;BME280;20720;48.886;9.388;2023-01-19T04:11:54;97413.66;;;-0.81;100.00
34482;BME280;20720;48.886;9.388;2023-01-19T04:14:21;97411.38;;;-0.84;100.00
34482;BME280;20720;48.886;9.388;2023-01-19T04:16:46;97412.63;;;-0.88;100.00
34482;BME280;20720;48.886;9.388;2023-01-19T04:19:11;97409.13;;;-0.79;100.00
34482;BME280;20720;48.886;9.388;2023-01-19T04:21:36;97415.25;;;-0.55;100.00
34482;BME280;20720;48.886;9.388;2023-01-19T04:24:02;97417.41;;;-0.76;100.00
34482;BME280;20720;48.886;9.388;2023-01-19T04:26:27;97418.97;;;-0.57;100.00
34482;BME280;20720;48.886;9.388;2023-01-19T04:28:52;97418.72;;;-0.46;100.00
34482;BME280;20720;48.886;9.388;2023-01-19T04:31:18;97424.97;;;-0.23;100.00
34482;BME280;20720;48.886;9.388;2023-01-19T04:33:43;97421.78;;;-0.09;100.00
34482;BME280;20720;48.886;9.388;2023-01-19T04:36:08;97423.69;;;-0.19;100.00
34482;BME280;20720;48.886;9.388;2023-01-19T04:38:34;97425.34;;;-0.10;100.00
34482;BME280;20720;48.886;9.388;2023-01-19T04:40:59;97426.72;;;-0.24;100.00
34482;BME280;20720;48.886;9.388;2023-01-19T04:43:25;97426.38;;;-0.54;100.00
34482;BME280;20720;48.886;9.388;2023-01-19T04:45:50;97429.28;;;-0.57;100.00
34482;BME280;20720;48.886;9.388;2023-01-19T04:48:16;97431.94;;;-0.41;100.00
34482;BME280;20720;48.886;9.388;2023-01-19T04:50:42;97429.63;;;-0.52;100.00
34482;BME280;20720;48.886;9.388;2023-01-19T04:53:08;97431.72;;;-0.22;100.00
34482;BME280;20720;48.886;9.388;2023-01-19T04:55:33;97444.19;;;-0.43;100.00
34482;BME280;20720;48.886;9.388;2023-01-19T04:57:58;97436.91;;;-0.48;100.00
34482;BME280;20720;48.886;9.388;2023-01-19T05:00:24;97438.03;;;-0.50;100.00
34482;BME280;20720;48.886;9.388;2023-01-19T05:02:50;97440.94;;;-0.45;100.00
34482;BME280;20720;48.886;9.388;2023-01-19T05:05:16;97440.34;;;-0.65;100.00
34482;BME280;20720;48.886;9.388;2023-01-19T05:07:42;97440.91;;;-0.53;100.00
34482;BME280;20720;48.886;9.388;2023-01-19T05:10:08;97445.41;;;-0.55;100.00
34482;BME280;20720;48.886;9.388;2023-01-19T05:12:34;97438.03;;;-0.50;100.00
34482;BME280;20720;48.886;9.388;2023-01-19T05:15:00;97443.50;;;-0.53;100.00
34482;BME280;20720;48.886;9.388;2023-01-19T05:17:25;97446.63;;;-0.67;100.00
34482;BME280;20720;48.886;9.388;2023-01-19T05:19:51;97448.13;;;-0.82;100.00
34482;BME280;20720;48.886;9.388;2023-01-19T05:22:16;97437.41;;;-0.70;100.00
34482;BME280;20720;48.886;9.388;2023-01-19T05:24:41;97439.53;;;-0.65;100.00
34482;BME280;20720;48.886;9.388;2023-01-19T05:27:07;97448.00;;;-0.99;100.00
34482;BME280;20720;48.886;9.388;2023-01-19T05:29:32;97452.25;;;-1.25;100.00
34482;BME280;20720;48.886;9.388;2023-01-19T05:31:58;97454.19;;;-1.27;100.00
34482;BME280;20720;48.886;9.388;2023-01-19T05:34:24;97455.88;;;-1.35;100.00
34482;BME280;20720;48.886;9.388;2023-01-19T05:36:49;97462.53;;;-1.33;100.00
34482;BME280;20720;48.886;9.388;2023-01-19T05:39:15;97459.25;;;-1.52;100.00
34482;BME280;20720;48.886;9.388;2023-01-19T05:41:40;97467.59;;;-1.41;100.00
34482;BME280;20720;48.886;9.388;2023-01-19T05:44:10;97465.94;;;-1.42;100.00
34482;BME280;20720;48.886;9.388;2023-01-19T05:46:35;97455.59;;;-1.50;100.00
34482;BME280;20720;48.886;9.388;2023-01-19T05:49:00;97457.09;;;-1.57;100.00
34482;BME280;20720;48.886;9.388;2023-01-19T05:51:29;97456.69;;;-1.79;100.00
34482;BME280;20720;48.886;9.388;2023-01-19T05:54:08;97459.09;;;-1.51;100.00
34482;BME280;20720;48.886;9.388;2023-01-19T05:56:34;97466.91;;;-1.43;100.00
34482;BME280;20720;48.886;9.388;2023-01-19T05:59:00;97470.31;;;-1.42;100.00
34482;BME280;20720;48.886;9.388;2023-01-19T06:01:26;97476.91;;;-1.57;100.00
34482;BME280;20720;48.886;9.388;2023-01-19T06:03:51;97475.88;;;-1.47;100.00
34482;BME280;20720;48.886;9.388;2023-01-19T06:06:16;97477.88;;;-1.41;100.00
34482;BME280;20720;48.886;9.388;2023-01-19T06:08:43;97486.47;;;-1.32;100.00
34482;BME280;20720;48.886;9.388;2023-01-19T06:11:08;97480.38;;;-1.49;100.00
34482;BME280;20720;48.886;9.388;2023-01-19T06:13:34;97483.19;;;-1.69;100.00
34482;BME280;20720;48.886;9.388;2023-01-19T06:16:00;97479.59;;;-1.59;100.00
34482;BME280;20720;48.886;9.388;2023-01-19T06:18:26;97494.31;;;-1.69;100.00
34482;BME280;20720;48.886;9.388;2023-01-19T06:20:52;97492.09;;;-1.64;100.00
34482;BME280;20720;48.886;9.388;2023-01-19T06:23:29;97494.34;;;-1.78;100.00
34482;BME280;20720;48.886;9.388;2023-01-19T06:25:55;97494.66;;;-1.91;100.00
34482;BME280;20720;48.886;9.388;2023-01-19T06:28:21;97498.66;;;-1.69;100.00
34482;BME280;20720;48.886;9.388;2023-01-19T06:30:50;97491.63;;;-1.77;100.00
34482;BME280;20720;48.886;9.388;2023-01-19T06:33:17;97499.56;;;-1.88;100.00
34482;BME280;20720;48.886;9.388;2023-01-19T06:35:43;97500.94;;;-1.94;100.00
34482;BME280;20720;48.886;9.388;2023-01-19T06:38:09;97504.84;;;-2.36;100.00
34482;BME280;20720;48.886;9.388;2023-01-19T06:40:34;97505.50;;;-2.24;100.00
34482;BME280;20720;48.886;9.388;2023-01-19T06:43:00;97503.47;;;-2.21;100.00
34482;BME280;20720;48.886;9.388;2023-01-19T06:45:25;97507.41;;;-2.26;100.00
34482;BME280;20720;48.886;9.388;2023-01-19T06:47:51;97509.41;;;-2.20;100.00
34482;BME280;20720;48.886;9.388;2023-01-19T06:50:16;97511.84;;;-2.19;100.00
34482;BME280;20720;48.886;9.388;2023-01-19T06:52:41;97517.09;;;-2.11;100.00
34482;BME280;20720;48.886;9.388;2023-01-19T06:55:10;97512.53;;;-2.17;100.00
34482;BME280;20720;48.886;9.388;2023-01-19T06:57:36;97520.66;;;-2.21;100.00
34482;BME280;20720;48.886;9.388;2023-01-19T07:00:03;97521.31;;;-2.19;100.00
34482;BME280;20720;48.886;9.388;2023-01-19T07:02:32;97519.66;;;-2.01;100.00
34482;BME280;20720;48.886;9.388;2023-01-19T07:04:57;97525.28;;;-1.88;100.00
34482;BME280;20720;48.886;9.388;2023-01-19T07:07:22;97521.47;;;-1.84;100.00
34482;BME280;20720;48.886;9.388;2023-01-19T07:09:48;97517.53;;;-2.15;100.00
34482;BME280;20720;48.886;9.388;2023-01-19T07:12:13;97526.34;;;-1.81;100.00
34482;BME280;20720;48.886;9.388;2023-01-19T07:14:38;97525.47;;;-1.72;100.00
34482;BME280;20720;48.886;9.388;2023-01-19T07:17:03;97524.31;;;-2.14;100.00
34482;BME280;20720;48.886;9.388;2023-01-19T07:19:29;97519.22;;;-1.97;100.00
34482;BME280;20720;48.886;9.388;2023-01-19T07:21:55;97530.97;;;-1.84;100.00
34482;BME280;20720;48.886;9.388;2023-01-19T07:24:21;97527.97;;;-1.80;100.00
34482;BME280;20720;48.886;9.388;2023-01-19T07:26:47;97528.75;;;-1.79;100.00
34482;BME280;20720;48.886;9.388;2023-01-19T07:29:12;97531.47;;;-1.81;100.00
34482;BME280;20720;48.886;9.388;2023-01-19T07:31:38;97528.63;;;-1.78;100.00
34482;BME280;20720;48.886;9.388;2023-01-19T07:34:03;97524.53;;;-1.71;100.00
34482;BME280;20720;48.886;9.388;2023-01-19T07:36:29;97519.81;;;-1.75;100.00
34482;BME280;20720;48.886;9.388;2023-01-19T07:38:54;97529.19;;;-1.84;100.00
34482;BME280;20720;48.886;9.388;2023-01-19T07:41:20;97528.91;;;-1.54;100.00
34482;BME280;20720;48.886;9.388;2023-01-19T07:43:45;97528.88;;;-1.44;100.00
34482;BME280;20720;48.886;9.388;2023-01-19T07:46:10;97525.94;;;-1.59;100.00
34482;BME280;20720;48.886;9.388;2023-01-19T07:48:35;97535.88;;;-1.37;100.00
34482;BME280;20720;48.886;9.388;2023-01-19T07:51:02;97537.81;;;-1.21;100.00
34482;BME280;20720;48.886;9.388;2023-01-19T07:53:36;97530.78;;;-1.46;100.00
34482;BME280;20720;48.886;9.388;2023-01-19T07:56:02;97536.47;;;-1.25;100.00
34482;BME280;20720;48.886;9.388;2023-01-19T07:58:33;97538.63;;;-1.03;100.00
34482;BME280;20720;48.886;9.388;2023-01-19T08:00:58;97532.75;;;-0.35;100.00
34482;BME280;20720;48.886;9.388;2023-01-19T08:03:24;97535.50;;;0.15;100.00
34482;BME280;20720;48.886;9.388;2023-01-19T08:05:51;97536.66;;;0.29;100.00
34482;BME280;20720;48.886;9.388;2023-01-19T08:08:16;97536.25;;;0.49;100.00
34482;BME280;20720;48.886;9.388;2023-01-19T08:10:42;97542.38;;;0.90;100.00
34482;BME280;20720;48.886;9.388;2023-01-19T08:13:07;97542.31;;;1.40;100.00
34482;BME280;20720;48.886;9.388;2023-01-19T08:15:33;97550.31;;;2.09;100.00
34482;BME280;20720;48.886;9.388;2023-01-19T08:18:00;97557.91;;;2.65;100.00
34482;BME280;20720;48.886;9.388;2023-01-19T08:20:26;97563.22;;;3.33;100.00
34482;BME280;20720;48.886;9.388;2023-01-19T08:22:52;97566.28;;;3.82;100.00
34482;BME280;20720;48.886;9.388;2023-01-19T08:27:58;97573.28;;;4.11;100.00
34482;BME280;20720;48.886;9.388;2023-01-19T08:30:23;97577.81;;;4.46;100.00
34482;BME280;20720;48.886;9.388;2023-01-19T08:32:51;97573.53;;;5.18;100.00
34482;BME280;20720;48.886;9.388;2023-01-19T08:35:18;97576.25;;;5.88;98.40
34482;BME280;20720;48.886;9.388;2023-01-19T08:37:43;97579.56;;;6.03;92.32
34482;BME280;20720;48.886;9.388;2023-01-19T08:40:09;97589.38;;;5.80;93.77
34482;BME280;20720;48.886;9.388;2023-01-19T08:42:34;97594.88;;;5.70;94.10
34482;BME280;20720;48.886;9.388;2023-01-19T08:44:59;97603.06;;;5.46;95.34
34482;BME280;20720;48.886;9.388;2023-01-19T08:47:25;97600.28;;;5.12;95.59
34482;BME280;20720;48.886;9.388;2023-01-19T08:49:50;97596.56;;;4.70;98.08
34482;BME280;20720;48.886;9.388;2023-01-19T08:52:15;97605.47;;;2.88;100.00
34482;BME280;20720;48.886;9.388;2023-01-19T08:54:40;97605.19;;;2.83;100.00
34482;BME280;20720;48.886;9.388;2023-01-19T08:57:06;97604.16;;;2.93;100.00
34482;BME280;20720;48.886;9.388;2023-01-19T08:59:31;97606.94;;;3.22;100.00
34482;BME280;20720;48.886;9.388;2023-01-19T09:01:56;97610.84;;;2.16;100.00
34482;BME280;20720;48.886;9.388;2023-01-19T09:04:22;97613.09;;;2.35;100.00
34482;BME280;20720;48.886;9.388;2023-01-19T09:06:48;97609.91;;;2.01;100.00
34482;BME280;20720;48.886;9.388;2023-01-19T09:09:13;97604.03;;;2.31;100.00
34482;BME280;20720;48.886;9.388;2023-01-19T09:11:39;97605.28;;;2.51;100.00
34482;BME280;20720;48.886;9.388;2023-01-19T09:14:04;97603.53;;;2.91;100.00
34482;BME280;20720;48.886;9.388;2023-01-19T09:16:30;97598.53;;;3.20;100.00
34482;BME280;20720;48.886;9.388;2023-01-19T09:18:55;97603.50;;;3.52;100.00
34482;BME280;20720;48.886;9.388;2023-01-19T09:21:20;97603.25;;;3.39;100.00
34482;BME280;20720;48.886;9.388;2023-01-19T09:23:46;97600.38;;;3.34;100.00
34482;BME280;20720;48.886;9.388;2023-01-19T09:26:11;97605.75;;;3.77;100.00
34482;BME280;20720;48.886;9.388;2023-01-19T09:28:37;97599.72;;;3.01;100.00
34482;BME280;20720;48.886;9.388;2023-01-19T09:31:06;97607.44;;;3.17;100.00
34482;BME280;20720;48.886;9.388;2023-01-19T09:33:32;97600.59;;;3.47;100.00
34482;BME280;20720;48.886;9.388;2023-01-19T09:35:57;97606.69;;;3.31;100.00
34482;BME280;20720;48.886;9.388;2023-01-19T09:38:23;97613.94;;;2.74;100.00
34482;BME280;20720;48.886;9.388;2023-01-19T09:40:54;97612.16;;;2.83;100.00
34482;BME280;20720;48.886;9.388;2023-01-19T09:46:12;97607.88;;;2.90;100.00
34482;BME280;20720;48.886;9.388;2023-01-19T09:48:47;97607.97;;;2.74;100.00
34482;BME280;20720;48.886;9.388;2023-01-19T09:51:19;97610.50;;;2.43;100.00
34482;BME280;20720;48.886;9.388;2023-01-19T09:53:51;97606.13;;;2.44;100.00
34482;BME280;20720;48.886;9.388;2023-01-19T09:56:20;97606.91;;;2.44;100.00
34482;BME280;20720;48.886;9.388;2023-01-19T09:58:47;97610.75;;;2.64;100.00
34482;BME280;20720;48.886;9.388;2023-01-19T10:04:20;97608.47;;;3.61;100.00
34482;BME280;20720;48.886;9.388;2023-01-19T10:06:52;97609.16;;;2.94;100.00
34482;BME280;20720;48.886;9.388;2023-01-19T10:09:28;97601.38;;;3.78;100.00
34482;BME280;20720;48.886;9.388;2023-01-19T10:12:02;97603.44;;;3.60;100.00
34482;BME280;20720;48.886;9.388;2023-01-19T10:14:42;97604.53;;;3.43;100.00
34482;BME280;20720;48.886;9.388;2023-01-19T10:17:33;97607.63;;;3.69;100.00
34482;BME280;20720;48.886;9.388;2023-01-19T10:20:03;97602.91;;;3.42;100.00
34482;BME280;20720;48.886;9.388;2023-01-19T10:22:35;97605.63;;;3.71;100.00
34482;BME280;20720;48.886;9.388;2023-01-19T10:25:03;97609.00;;;3.94;100.00
34482;BME280;20720;48.886;9.388;2023-01-19T10:27:38;97605.78;;;3.69;100.00
34482;BME280;20720;48.886;9.388;2023-01-19T10:30:06;97607.09;;;3.20;100.00
34482;BME280;20720;48.886;9.388;2023-01-19T10:32:33;97600.28;;;3.72;100.00
34482;BME280;20720;48.886;9.388;2023-01-19T10:35:01;97608.31;;;3.02;100.00
34482;BME280;20720;48.886;9.388;2023-01-19T10:37:38;97594.06;;;3.28;100.00
34482;BME280;20720;48.886;9.388;2023-01-19T10:42:34;97604.25;;;3.38;100.00
34482;BME280;20720;48.886;9.388;2023-01-19T10:45:00;97595.28;;;3.18;100.00
34482;BME280;20720;48.886;9.388;2023-01-19T10:47:35;97599.41;;;3.35;100.00
34482;BME280;20720;48.886;9.388;2023-01-19T10:50:24;97599.22;;;3.59;100.00
34482;BME280;20720;48.886;9.388;2023-01-19T10:52:52;97598.31;;;3.52;100.00
34482;BME280;20720;48.886;9.388;2023-01-19T10:55:29;97589.75;;;3.66;100.00
34482;BME280;20720;48.886;9.388;2023-01-19T10:57:55;97588.31;;;2.88;100.00
34482;BME280;20720;48.886;9.388;2023-01-19T11:02:57;97591.66;;;3.95;100.00
34482;BME280;20720;48.886;9.388;2023-01-19T11:05:28;97581.28;;;3.72;100.00
34482;BME280;20720;48.886;9.388;2023-01-19T11:07:53;97592.66;;;3.94;100.00
34482;BME280;20720;48.886;9.388;2023-01-19T11:10:21;97589.56;;;4.86;98.17
34482;BME280;20720;48.886;9.388;2023-01-19T11:13:08;97585.75;;;5.38;94.45
34482;BME280;20720;48.886;9.388;2023-01-19T11:15:52;97584.91;;;4.66;95.80
34482;BME280;20720;48.886;9.388;2023-01-19T11:18:36;97595.59;;;4.42;95.89
34482;BME280;20720;48.886;9.388;2023-01-19T11:21:03;97597.50;;;3.74;100.00
34482;BME280;20720;48.886;9.388;2023-01-19T11:23:33;97603.91;;;3.86;100.00
34482;BME280;20720;48.886;9.388;2023-01-19T11:26:04;97598.25;;;4.49;100.00
34482;BME280;20720;48.886;9.388;2023-01-19T11:28:36;97598.44;;;4.18;99.46
34482;BME280;20720;48.886;9.388;2023-01-19T11:33:40;97604.81;;;3.93;100.00
34482;BME280;20720;48.886;9.388;2023-01-19T11:36:18;97595.38;;;3.55;100.00
34482;BME280;20720;48.886;9.388;2023-01-19T11:38:46;97600.53;;;4.15;100.00
34482;BME280;20720;48.886;9.388;2023-01-19T11:41:34;97591.34;;;4.12;100.00
34482;BME280;20720;48.886;9.388;2023-01-19T11:44:15;97585.91;;;3.62;100.00
34482;BME280;20720;48.886;9.388;2023-01-19T11:46:43;97584.53;;;3.89;100.00
34482;BME280;20720;48.886;9.388;2023-01-19T11:49:35;97574.41;;;3.79;100.00
34482;BME280;20720;48.886;9.388;2023-01-19T11:52:05;97575.03;;;4.47;100.00
34482;BME280;20720;48.886;9.388;2023-01-19T11:55:04;97574.69;;;4.50;97.48
34482;BME280;20720;48.886;9.388;2023-01-19T11:57:45;97564.81;;;4.60;97.94
34482;BME280;20720;48.886;9.388;2023-01-19T12:00:45;97568.66;;;4.79;97.17
34482;BME280;20720;48.886;9.388;2023-01-19T12:03:29;97570.72;;;4.54;93.50
34482;BME280;20720;48.886;9.388;2023-01-19T12:06:00;97569.50;;;4.50;100.00
34482;BME280;20720;48.886;9.388;2023-01-19T12:08:54;97562.13;;;4.68;97.36
34482;BME280;20720;48.886;9.388;2023-01-19T12:11:25;97561.72;;;5.01;95.35
34482;BME280;20720;48.886;9.388;2023-01-19T12:13:52;97555.50;;;4.51;96.03
34482;BME280;20720;48.886;9.388;2023-01-19T12:16:29;97568.47;;;4.08;98.17
34482;BME280;20720;48.886;9.388;2023-01-19T12:19:04;97567.19;;;4.04;100.00
34482;BME280;20720;48.886;9.388;2023-01-19T12:21:31;97566.69;;;4.23;100.00
34482;BME280;20720;48.886;9.388;2023-01-19T12:24:16;97567.53;;;3.86;100.00
34482;BME280;20720;48.886;9.388;2023-01-19T12:26:50;97567.75;;;3.99;100.00
34482;BME280;20720;48.886;9.388;2023-01-19T12:29:18;97568.91;;;4.11;100.00
34482;BME280;20720;48.886;9.388;2023-01-19T12:34:50;97575.03;;;3.81;100.00
34482;BME280;20720;48.886;9.388;2023-01-19T12:40:24;97584.06;;;4.22;100.00
34482;BME280;20720;48.886;9.388;2023-01-19T12:43:03;97588.66;;;4.49;100.00
34482;BME280;20720;48.886;9.388;2023-01-19T12:45:34;97579.16;;;4.27;100.00
34482;BME280;20720;48.886;9.388;2023-01-19T12:48:00;97577.81;;;4.60;100.00
34482;BME280;20720;48.886;9.388;2023-01-19T12:50:30;97581.13;;;4.54;100.00
34482;BME280;20720;48.886;9.388;2023-01-19T12:52:59;97588.22;;;3.94;100.00
34482;BME280;20720;48.886;9.388;2023-01-19T12:55:37;97596.31;;;3.99;100.00
34482;BME280;20720;48.886;9.388;2023-01-19T12:58:12;97591.53;;;4.25;100.00
34482;BME280;20720;48.886;9.388;2023-01-19T13:00:40;97590.00;;;4.45;100.00
34482;BME280;20720;48.886;9.388;2023-01-19T13:05:58;97600.84;;;4.49;100.00
34482;BME280;20720;48.886;9.388;2023-01-19T13:08:28;97604.09;;;4.36;100.00
34482;BME280;20720;48.886;9.388;2023-01-19T13:11:16;97607.31;;;4.53;100.00
34482;BME280;20720;48.886;9.388;2023-01-19T13:18:44;97600.97;;;4.55;100.00
34482;BME280;20720;48.886;9.388;2023-01-19T13:21:13;97614.94;;;4.40;100.00
34482;BME280;20720;48.886;9.388;2023-01-19T13:23:53;97604.97;;;4.43;100.00
34482;BME280;20720;48.886;9.388;2023-01-19T13:26:24;97609.28;;;4.36;100.00
34482;BME280;20720;48.886;9.388;2023-01-19T13:28:56;97604.44;;;3.59;100.00
34482;BME280;20720;48.886;9.388;2023-01-19T13:31:32;97607.25;;;4.09;100.00
34482;BME280;20720;48.886;9.388;2023-01-19T13:34:00;97600.03;;;4.34;100.00
34482;BME280;20720;48.886;9.388;2023-01-19T13:36:37;97608.28;;;4.37;100.00
34482;BME280;20720;48.886;9.388;2023-01-19T13:39:06;97607.66;;;3.83;100.00
34482;BME280;20720;48.886;9.388;2023-01-19T13:41:38;97601.69;;;3.52;100.00
34482;BME280;20720;48.886;9.388;2023-01-19T13:44:17;97602.34;;;3.77;100.00
34482;BME280;20720;48.886;9.388;2023-01-19T13:46:45;97597.56;;;4.03;100.00
34482;BME280;20720;48.886;9.388;2023-01-19T13:49:16;97601.06;;;3.73;100.00